createdAt,value
2019-06-26T00:00:14.219Z,51.72
2019-06-26T00:01:18.622Z,51.60
2019-06-26T00:02:21.350Z,51.48
2019-06-26T00:03:23.612Z,51.92
2019-06-26T00:04:28.453Z,52.03
2019-06-26T00:05:31.979Z,51.69
2019-06-26T00:06:35.390Z,51.71
2019-06-26T00:07:37.295Z,51.51
2019-06-26T00:08:41.164Z,51.75
2019-06-26T00:09:44.901Z,51.62
2019-06-26T00:10:47.890Z,51.43
2019-06-26T00:11:52.397Z,51.42
2019-06-26T00:12:58.803Z,52.11
2019-06-26T00:14:02.227Z,52.63
2019-06-26T00:15:07.026Z,52.58
2019-06-26T00:16:09.633Z,52.66
2019-06-26T00:17:12.564Z,53.42
2019-06-26T00:18:16.280Z,52.54
2019-06-26T00:19:21.608Z,52.32
2019-06-26T00:20:24.814Z,53.22
2019-06-26T00:21:27.336Z,53.54
2019-06-26T00:22:30.676Z,54.29
2019-06-26T00:23:34.140Z,54.44
2019-06-26T00:24:35.916Z,54.58
2019-06-26T00:25:38.707Z,53.92
2019-06-26T00:26:41.937Z,54.17
2019-06-26T00:27:47.259Z,53.64
2019-06-26T00:28:50.298Z,54.17
2019-06-26T00:29:53.700Z,54.95
2019-06-26T00:30:58.604Z,54.86
2019-06-26T00:32:02.041Z,55.27
2019-06-26T00:33:04.911Z,54.95
2019-06-26T00:34:06.785Z,54.40
2019-06-26T00:35:10.016Z,55.51
2019-06-26T00:36:13.449Z,55.33
2019-06-26T00:37:17.226Z,54.56
2019-06-26T00:38:20.410Z,54.15
2019-06-26T00:39:22.206Z,54.94
2019-06-26T00:40:25.031Z,54.51
2019-06-26T00:41:28.276Z,54.11
2019-06-26T00:42:31.684Z,54.76
2019-06-26T00:43:42.345Z,54.05
2019-06-26T00:44:38.777Z,54.24
2019-06-26T00:45:42.059Z,53.84
2019-06-26T00:46:45.060Z,53.74
2019-06-26T00:47:48.359Z,53.53
2019-06-26T00:48:52.913Z,53.12
2019-06-26T00:49:57.977Z,52.94
2019-06-26T00:51:01.119Z,52.73
2019-06-26T00:52:03.586Z,52.33
2019-06-26T00:53:06.993Z,52.46
2019-06-26T00:54:09.669Z,52.10
2019-06-26T00:55:12.304Z,51.76
2019-06-26T00:56:15.875Z,51.80
2019-06-26T00:57:19.451Z,51.45
2019-06-26T00:58:22.225Z,51.27
2019-06-26T00:59:25.373Z,51.19
2019-06-26T01:00:41.440Z,51.59
2019-06-26T01:01:44.395Z,51.35
2019-06-26T01:02:49.833Z,51.83
2019-06-26T01:03:55.202Z,51.42
2019-06-26T01:05:02.975Z,52.91
2019-06-26T01:06:08.157Z,52.98
2019-06-26T01:07:09.911Z,53.63
2019-06-26T01:08:14.690Z,54.19
2019-06-26T01:09:18.431Z,54.34
2019-06-26T01:10:22.028Z,54.41
2019-06-26T01:11:26.003Z,54.27
2019-06-26T01:12:27.984Z,53.77
2019-06-26T01:13:31.259Z,53.41
2019-06-26T01:14:34.318Z,52.88
2019-06-26T01:15:37.379Z,52.52
2019-06-26T01:16:42.168Z,52.22
2019-06-26T01:17:45.331Z,51.81
2019-06-26T01:18:46.978Z,51.89
2019-06-26T01:19:50.272Z,51.49
2019-06-26T01:20:53.596Z,51.62
2019-06-26T01:21:56.518Z,52.35
2019-06-26T01:22:59.519Z,53.09
2019-06-26T01:24:03.233Z,54.03
2019-06-26T01:25:06.771Z,55.08
2019-06-26T01:26:09.303Z,55.09
2019-06-26T01:27:13.970Z,54.73
2019-06-26T01:28:16.171Z,54.67
2019-06-26T01:29:19.250Z,54.50
2019-06-26T01:30:22.986Z,54.17
2019-06-26T01:31:25.359Z,53.64
2019-06-26T01:32:28.131Z,53.25
2019-06-26T01:33:31.499Z,52.84
2019-06-26T01:34:34.693Z,52.71
2019-06-26T01:35:37.966Z,52.60
2019-06-26T01:36:41.230Z,52.83
2019-06-26T01:37:43.983Z,52.64
2019-06-26T01:38:48.379Z,52.15
2019-06-26T01:39:52.035Z,51.91
2019-06-26T01:40:56.517Z,51.74
2019-06-26T01:41:59.608Z,51.41
2019-06-26T01:43:07.312Z,51.22
2019-06-26T01:44:14.833Z,51.07
2019-06-26T01:45:16.574Z,50.88
2019-06-26T01:46:20.893Z,50.74
2019-06-26T01:47:25.678Z,50.68
2019-06-26T01:48:30.461Z,50.52
2019-06-26T01:49:35.341Z,50.37
2019-06-26T01:50:38.567Z,50.18
2019-06-26T01:51:41.224Z,50.54
2019-06-26T01:52:44.529Z,50.48
2019-06-26T01:53:49.844Z,50.42
2019-06-26T01:54:52.336Z,50.23
2019-06-26T01:55:55.126Z,49.99
2019-06-26T01:56:58.855Z,50.26
2019-06-26T01:58:01.289Z,50.19
2019-06-26T01:59:04.554Z,51.58
2019-06-26T02:00:09.660Z,52.47
2019-06-26T02:01:14.083Z,53.31
2019-06-26T02:02:19.317Z,54.01
2019-06-26T02:03:22.440Z,53.49
2019-06-26T02:04:27.845Z,53.72
2019-06-26T02:05:32.708Z,54.18
2019-06-26T02:06:36.026Z,54.19
2019-06-26T02:07:39.399Z,54.26
2019-06-26T02:08:43.827Z,53.89
2019-06-26T02:09:46.018Z,54.15
2019-06-26T02:10:48.708Z,53.63
2019-06-26T02:11:52.155Z,53.15
2019-06-26T02:12:55.436Z,52.72
2019-06-26T02:13:58.545Z,52.58
2019-06-26T02:15:05.516Z,52.21
2019-06-26T02:16:09.894Z,52.08
2019-06-26T02:17:13.109Z,52.31
2019-06-26T02:18:33.051Z,52.99
2019-06-26T02:19:36.298Z,53.38
2019-06-26T02:20:39.482Z,53.28
2019-06-26T02:21:42.553Z,52.91
2019-06-26T02:22:44.410Z,53.47
2019-06-26T02:23:47.066Z,53.56
2019-06-26T02:24:48.964Z,54.37
2019-06-26T02:25:52.347Z,54.01
2019-06-26T02:26:57.014Z,54.75
2019-06-26T02:27:59.742Z,54.96
2019-06-26T02:29:02.495Z,55.57
2019-06-26T02:30:06.664Z,55.19
2019-06-26T02:31:10.488Z,55.15
2019-06-26T02:32:13.751Z,54.82
2019-06-26T02:33:18.367Z,54.98
2019-06-26T02:34:21.657Z,54.96
2019-06-26T02:35:24.788Z,55.02
2019-06-26T02:36:28.021Z,55.39
2019-06-26T02:37:31.006Z,54.82
2019-06-26T02:38:33.677Z,54.47
2019-06-26T02:39:38.225Z,54.03
2019-06-26T02:40:41.695Z,53.72
2019-06-26T02:41:47.834Z,54.13
2019-06-26T02:42:49.885Z,55.16
2019-06-26T02:43:53.652Z,55.58
2019-06-26T02:44:56.795Z,56.14
2019-06-26T02:45:58.727Z,56.59
2019-06-26T02:47:18.391Z,57.22
2019-06-26T02:48:07.359Z,57.82
2019-06-26T02:49:09.221Z,58.12
2019-06-26T02:50:12.824Z,57.79
2019-06-26T02:51:17.553Z,57.37
2019-06-26T02:52:20.526Z,56.66
2019-06-26T02:53:23.785Z,56.42
2019-06-26T02:54:26.955Z,55.85
2019-06-26T02:55:29.891Z,56.93
2019-06-26T02:56:33.446Z,57.18
2019-06-26T02:57:36.421Z,57.11
2019-06-26T02:58:38.193Z,57.42
2019-06-26T02:59:41.277Z,56.63
2019-06-26T03:00:43.076Z,57.70
2019-06-26T03:01:45.985Z,57.41
2019-06-26T03:02:48.918Z,56.64
2019-06-26T03:03:50.967Z,56.41
2019-06-26T03:04:54.262Z,56.70
2019-06-26T03:05:57.335Z,56.36
2019-06-26T03:07:01.376Z,56.69
2019-06-26T03:08:04.303Z,57.23
2019-06-26T03:09:07.555Z,56.83
2019-06-26T03:10:11.463Z,57.81
2019-06-26T03:11:15.373Z,58.27
2019-06-26T03:12:17.266Z,58.51
2019-06-26T03:13:20.551Z,58.66
2019-06-26T03:14:23.876Z,58.80
2019-06-26T03:15:26.848Z,59.16
2019-06-26T03:16:30.074Z,59.10
2019-06-26T03:17:33.175Z,59.10
2019-06-26T03:18:35.094Z,59.83
2019-06-26T03:19:38.543Z,59.46
2019-06-26T03:20:47.328Z,58.97
2019-06-26T03:21:50.395Z,59.35
2019-06-26T03:22:53.674Z,59.82
2019-06-26T03:23:56.702Z,59.31
2019-06-26T03:24:59.025Z,60.19
2019-06-26T03:26:02.370Z,59.22
2019-06-26T03:27:08.214Z,59.73
2019-06-26T03:28:09.006Z,58.72
2019-06-26T03:29:16.256Z,58.29
2019-06-26T03:30:20.263Z,58.57
2019-06-26T03:31:23.317Z,59.16
2019-06-26T03:32:26.027Z,58.21
2019-06-26T03:33:28.884Z,59.41
2019-06-26T03:34:32.138Z,59.33
2019-06-26T03:35:35.290Z,59.63
2019-06-26T03:36:38.316Z,60.31
2019-06-26T03:37:41.318Z,60.52
2019-06-26T03:38:44.194Z,60.68
2019-06-26T03:39:45.895Z,60.59
2019-06-26T03:40:49.220Z,60.87
2019-06-26T03:41:52.526Z,60.78
2019-06-26T03:42:55.249Z,61.16
2019-06-26T03:44:01.674Z,60.71
2019-06-26T03:45:06.542Z,59.74
2019-06-26T03:46:08.388Z,60.30
2019-06-26T03:47:13.133Z,59.72
2019-06-26T03:48:16.293Z,58.44
2019-06-26T03:49:19.490Z,58.37
2019-06-26T03:50:22.578Z,58.55
2019-06-26T03:51:25.946Z,58.33
2019-06-26T03:52:28.838Z,58.62
2019-06-26T03:53:32.374Z,57.77
2019-06-26T03:54:35.247Z,57.04
2019-06-26T03:55:40.182Z,56.55
2019-06-26T03:56:43.391Z,56.34
2019-06-26T03:57:45.190Z,55.95
2019-06-26T03:58:49.113Z,56.28
2019-06-26T03:59:53.438Z,55.85
2019-06-26T04:00:55.926Z,55.90
2019-06-26T04:01:59.851Z,56.31
2019-06-26T04:03:04.117Z,56.18
2019-06-26T04:04:06.064Z,56.30
2019-06-26T04:05:09.590Z,55.90
2019-06-26T04:06:13.317Z,56.24
2019-06-26T04:07:16.261Z,56.56
2019-06-26T04:08:19.518Z,56.25
2019-06-26T04:09:25.665Z,56.51
2019-06-26T04:10:28.835Z,55.84
2019-06-26T04:11:31.756Z,55.28
2019-06-26T04:12:34.882Z,55.64
2019-06-26T04:13:39.031Z,54.68
2019-06-26T04:14:41.742Z,54.74
2019-06-26T04:15:44.813Z,55.33
2019-06-26T04:16:47.798Z,54.62
2019-06-26T04:17:54.190Z,54.25
2019-06-26T04:18:56.087Z,53.76
2019-06-26T04:20:00.010Z,54.30
2019-06-26T04:21:03.319Z,54.16
2019-06-26T04:22:05.021Z,54.08
2019-06-26T04:23:07.581Z,54.37
2019-06-26T04:24:11.267Z,54.23
2019-06-26T04:25:14.527Z,54.16
2019-06-26T04:26:18.955Z,54.98
2019-06-26T04:27:21.723Z,54.78
2019-06-26T04:28:26.106Z,54.91
2019-06-26T04:29:29.801Z,55.73
2019-06-26T04:30:32.833Z,55.87
2019-06-26T04:31:35.899Z,55.18
2019-06-26T04:32:39.249Z,54.66
2019-06-26T04:33:41.090Z,55.76
2019-06-26T04:34:46.043Z,55.00
2019-06-26T04:35:51.508Z,55.80
2019-06-26T04:36:54.224Z,56.20
2019-06-26T04:37:57.411Z,56.46
2019-06-26T04:39:00.632Z,56.10
2019-06-26T04:40:05.765Z,57.19
2019-06-26T04:41:09.078Z,57.56
2019-06-26T04:42:14.040Z,57.90
2019-06-26T04:43:16.667Z,58.40
2019-06-26T04:44:20.172Z,59.24
2019-06-26T04:45:22.991Z,59.56
2019-06-26T04:46:27.170Z,59.01
2019-06-26T04:47:31.067Z,58.76
2019-06-26T04:48:34.617Z,58.22
2019-06-26T04:49:37.400Z,58.68
2019-06-26T04:50:41.004Z,58.58
2019-06-26T04:51:43.015Z,58.32
2019-06-26T04:52:45.877Z,58.61
2019-06-26T04:53:48.970Z,58.85
2019-06-26T04:54:51.087Z,57.90
2019-06-26T04:55:56.134Z,58.25
2019-06-26T04:57:00.518Z,57.88
2019-06-26T04:58:02.834Z,58.39
2019-06-26T04:59:09.346Z,58.79
2019-06-26T05:00:13.465Z,59.08
2019-06-26T05:01:16.424Z,58.83
2019-06-26T05:02:22.738Z,59.03
2019-06-26T05:03:25.581Z,58.28
2019-06-26T05:04:28.449Z,58.28
2019-06-26T05:05:39.704Z,58.08
2019-06-26T05:06:37.834Z,57.37
2019-06-26T05:07:41.265Z,56.43
2019-06-26T05:08:44.525Z,56.05
2019-06-26T05:09:47.089Z,55.37
2019-06-26T05:10:50.398Z,55.78
2019-06-26T05:11:53.998Z,55.46
2019-06-26T05:12:55.666Z,55.60
2019-06-26T05:13:58.574Z,54.95
2019-06-26T05:15:01.282Z,54.18
2019-06-26T05:16:14.189Z,53.74
2019-06-26T05:17:08.782Z,53.34
2019-06-26T05:18:11.692Z,52.97
2019-06-26T05:19:15.029Z,52.58
2019-06-26T05:20:18.425Z,53.79
2019-06-26T05:21:21.271Z,52.51
2019-06-26T05:22:23.174Z,52.34
2019-06-26T05:23:26.031Z,52.11
2019-06-26T05:24:28.927Z,52.96
2019-06-26T05:25:31.736Z,53.34
2019-06-26T05:26:35.267Z,53.86
2019-06-26T05:27:39.577Z,54.08
2019-06-26T05:28:43.235Z,53.52
2019-06-26T05:29:46.170Z,53.11
2019-06-26T05:30:50.138Z,53.14
2019-06-26T05:31:52.769Z,53.19
2019-06-26T05:32:55.959Z,52.83
2019-06-26T05:34:00.860Z,53.04
2019-06-26T05:35:07.977Z,53.41
2019-06-26T05:36:10.440Z,52.59
2019-06-26T05:37:12.971Z,52.72
2019-06-26T05:38:15.717Z,52.50
2019-06-26T05:39:18.367Z,52.16
2019-06-26T05:40:20.603Z,51.83
2019-06-26T05:41:23.367Z,51.91
2019-06-26T05:42:25.893Z,51.68
2019-06-26T05:43:29.778Z,51.47
2019-06-26T05:44:32.435Z,51.42
2019-06-26T05:45:35.370Z,51.42
2019-06-26T05:46:37.737Z,51.12
2019-06-26T05:47:40.481Z,52.35
2019-06-26T05:48:43.481Z,51.35
2019-06-26T05:49:46.128Z,51.38
2019-06-26T05:50:50.167Z,51.16
2019-06-26T05:51:54.452Z,51.16
2019-06-26T05:52:57.510Z,52.04
2019-06-26T05:54:00.461Z,52.46
2019-06-26T05:55:06.036Z,51.78
2019-06-26T05:56:10.324Z,51.29
2019-06-26T05:57:13.290Z,50.97
2019-06-26T05:58:17.496Z,51.24
2019-06-26T05:59:20.295Z,53.36
2019-06-26T06:00:23.564Z,53.71
2019-06-26T06:01:28.524Z,51.87
2019-06-26T06:02:34.869Z,51.47
2019-06-26T06:03:36.946Z,51.23
2019-06-26T06:04:39.977Z,52.57
2019-06-26T06:05:42.691Z,51.28
2019-06-26T06:06:45.594Z,53.20
2019-06-26T06:07:48.375Z,51.23
2019-06-26T06:08:51.426Z,50.73
2019-06-26T06:09:53.363Z,51.81
2019-06-26T06:10:58.246Z,50.22
2019-06-26T06:12:01.093Z,50.30
2019-06-26T06:13:04.814Z,52.96
2019-06-26T06:14:07.346Z,51.31
2019-06-26T06:15:10.599Z,54.02
2019-06-26T06:16:12.621Z,51.98
2019-06-26T06:17:19.846Z,53.13
2019-06-26T06:18:22.362Z,53.74
2019-06-26T06:19:25.115Z,53.83
2019-06-26T06:20:39.013Z,53.28
2019-06-26T06:21:40.934Z,53.93
2019-06-26T06:22:43.410Z,54.15
2019-06-26T06:23:45.981Z,54.05
2019-06-26T06:24:48.644Z,53.03
2019-06-26T06:25:53.154Z,52.04
2019-06-26T06:26:55.738Z,53.61
2019-06-26T06:27:58.975Z,53.99
2019-06-26T06:29:03.167Z,53.56
2019-06-26T06:30:07.635Z,53.84
2019-06-26T06:31:10.447Z,53.62
2019-06-26T06:32:13.050Z,53.79
2019-06-26T06:33:15.657Z,53.53
2019-06-26T06:34:17.809Z,53.84
2019-06-26T06:35:21.489Z,54.34
2019-06-26T06:36:25.808Z,54.37
2019-06-26T06:37:29.980Z,54.32
2019-06-26T06:38:33.136Z,54.30
2019-06-26T06:39:35.152Z,54.10
2019-06-26T06:40:39.061Z,54.43
2019-06-26T06:41:43.468Z,54.20
2019-06-26T06:42:45.577Z,54.79
2019-06-26T06:43:51.906Z,54.83
2019-06-26T06:44:56.091Z,54.80
2019-06-26T06:45:58.145Z,54.54
2019-06-26T06:47:04.437Z,54.01
2019-06-26T06:48:05.669Z,53.88
2019-06-26T06:49:09.445Z,53.83
2019-06-26T06:50:13.031Z,54.00
2019-06-26T06:51:16.844Z,53.46
2019-06-26T06:52:19.607Z,53.48
2019-06-26T06:53:22.259Z,53.44
2019-06-26T06:54:25.192Z,53.30
2019-06-26T06:55:27.160Z,53.55
2019-06-26T06:56:29.646Z,53.45
2019-06-26T06:57:32.662Z,53.66
2019-06-26T06:58:35.378Z,53.88
2019-06-26T06:59:38.144Z,54.16
2019-06-26T07:00:39.994Z,53.98
2019-06-26T07:01:42.932Z,54.02
2019-06-26T07:02:46.068Z,54.26
2019-06-26T07:03:48.331Z,53.97
2019-06-26T07:04:51.281Z,54.41
2019-06-26T07:05:56.018Z,54.42
2019-06-26T07:07:01.058Z,54.56
2019-06-26T07:08:03.806Z,53.92
2019-06-26T07:09:09.639Z,53.83
2019-06-26T07:10:12.568Z,53.99
2019-06-26T07:11:15.462Z,54.24
2019-06-26T07:12:20.931Z,54.12
2019-06-26T07:13:22.617Z,54.24
2019-06-26T07:14:25.440Z,54.44
2019-06-26T07:15:27.525Z,54.24
2019-06-26T07:16:30.308Z,54.20
2019-06-26T07:17:35.384Z,54.14
2019-06-26T07:18:37.906Z,53.57
2019-06-26T07:19:40.789Z,53.21
2019-06-26T07:20:44.754Z,53.57
2019-06-26T07:21:46.846Z,53.68
2019-06-26T07:22:49.530Z,53.33
2019-06-26T07:23:53.849Z,53.42
2019-06-26T07:24:56.697Z,53.11
2019-06-26T07:26:00.701Z,52.43
2019-06-26T07:27:03.568Z,53.07
2019-06-26T07:28:05.983Z,52.84
2019-06-26T07:29:08.791Z,53.27
2019-06-26T07:30:16.079Z,52.62
2019-06-26T07:31:18.008Z,52.23
2019-06-26T07:32:20.581Z,52.50
2019-06-26T07:33:23.065Z,52.61
2019-06-26T07:34:24.842Z,52.49
2019-06-26T07:35:27.319Z,52.54
2019-06-26T07:36:29.126Z,52.14
2019-06-26T07:37:32.561Z,51.65
2019-06-26T07:38:35.474Z,52.04
2019-06-26T07:39:37.985Z,52.39
2019-06-26T07:40:40.339Z,52.40
2019-06-26T07:41:43.135Z,52.46
2019-06-26T07:42:48.020Z,51.67
2019-06-26T07:43:50.509Z,51.71
2019-06-26T07:44:53.875Z,51.57
2019-06-26T07:45:56.355Z,51.27
2019-06-26T07:47:00.506Z,51.39
2019-06-26T07:48:03.606Z,51.24
2019-06-26T07:49:08.414Z,51.48
2019-06-26T07:50:12.862Z,51.42
2019-06-26T07:51:14.920Z,51.57
2019-06-26T07:52:17.946Z,51.24
2019-06-26T07:53:23.588Z,50.80
2019-06-26T07:54:25.280Z,50.78
2019-06-26T07:55:29.460Z,50.47
2019-06-26T07:56:32.368Z,50.85
2019-06-26T07:57:34.754Z,50.47
2019-06-26T07:58:37.703Z,49.91
2019-06-26T07:59:40.443Z,49.54
2019-06-26T08:00:43.421Z,49.33
2019-06-26T08:01:45.806Z,49.58
2019-06-26T08:02:48.641Z,49.18
2019-06-26T08:03:51.324Z,49.23
2019-06-26T08:04:53.712Z,48.81
2019-06-26T08:05:56.091Z,49.70
2019-06-26T08:06:58.153Z,49.57
2019-06-26T08:08:01.968Z,48.95
2019-06-26T08:09:05.769Z,49.45
2019-06-26T08:10:10.907Z,49.00
2019-06-26T08:11:15.416Z,49.30
2019-06-26T08:12:17.880Z,49.89
2019-06-26T08:13:21.099Z,49.37
2019-06-26T08:14:23.643Z,49.40
2019-06-26T08:15:25.782Z,49.45
2019-06-26T08:16:28.870Z,49.37
2019-06-26T08:17:31.465Z,48.82
2019-06-26T08:18:34.261Z,48.89
2019-06-26T08:19:36.561Z,48.69
2019-06-26T08:20:51.849Z,48.79
2019-06-26T08:21:46.790Z,49.37
2019-06-26T08:22:49.775Z,49.69
2019-06-26T08:23:52.701Z,49.72
2019-06-26T08:24:54.612Z,50.18
2019-06-26T08:25:57.488Z,50.04
2019-06-26T08:27:00.958Z,50.05
2019-06-26T08:28:05.553Z,50.16
2019-06-26T08:29:09.411Z,50.34
2019-06-26T08:30:13.689Z,49.90
2019-06-26T08:31:17.892Z,50.49
2019-06-26T08:32:20.270Z,50.55
2019-06-26T08:33:22.745Z,49.81
2019-06-26T08:34:26.832Z,49.58
2019-06-26T08:35:29.632Z,49.13
2019-06-26T08:36:32.020Z,48.99
2019-06-26T08:37:34.708Z,48.87
2019-06-26T08:38:39.543Z,48.92
2019-06-26T08:39:43.994Z,48.66
2019-06-26T08:40:46.647Z,48.93
2019-06-26T08:41:51.321Z,48.75
2019-06-26T08:42:53.116Z,48.78
2019-06-26T08:43:56.244Z,48.52
2019-06-26T08:44:58.927Z,48.79
2019-06-26T08:46:00.917Z,48.51
2019-06-26T08:47:03.749Z,48.16
2019-06-26T08:48:19.065Z,48.11
2019-06-26T08:49:24.265Z,48.21
2019-06-26T08:50:17.422Z,48.94
2019-06-26T08:51:20.997Z,48.45
2019-06-26T08:52:24.262Z,48.38
2019-06-26T08:53:30.510Z,48.35
2019-06-26T08:54:33.344Z,48.44
2019-06-26T08:55:35.711Z,48.48
2019-06-26T08:56:38.579Z,48.07
2019-06-26T08:57:41.239Z,47.77
2019-06-26T08:58:44.907Z,47.68
2019-06-26T08:59:47.950Z,48.01
2019-06-26T09:00:49.950Z,47.83
2019-06-26T09:01:52.653Z,47.69
2019-06-26T09:02:56.104Z,47.66
2019-06-26T09:04:01.813Z,47.51
2019-06-26T09:05:05.599Z,47.98
2019-06-26T09:06:08.500Z,48.62
2019-06-26T09:07:10.617Z,48.34
2019-06-26T09:08:13.212Z,47.56
2019-06-26T09:09:15.152Z,47.28
2019-06-26T09:10:18.544Z,47.58
2019-06-26T09:11:22.060Z,47.59
2019-06-26T09:12:24.765Z,47.40
2019-06-26T09:13:27.343Z,46.42
2019-06-26T09:14:30.088Z,46.42
2019-06-26T09:15:34.623Z,46.24
2019-06-26T09:16:37.287Z,45.97
2019-06-26T09:17:39.969Z,45.97
2019-06-26T09:18:42.621Z,46.24
2019-06-26T09:19:45.342Z,46.80
2019-06-26T09:20:48.657Z,47.06
2019-06-26T09:21:51.566Z,46.76
2019-06-26T09:22:54.327Z,46.66
2019-06-26T09:23:58.437Z,47.63
2019-06-26T09:25:19.879Z,47.65
2019-06-26T09:26:08.746Z,47.51
2019-06-26T09:27:14.637Z,47.63
2019-06-26T09:28:15.083Z,48.18
2019-06-26T09:29:18.237Z,47.61
2019-06-26T09:30:21.684Z,47.54
2019-06-26T09:31:24.303Z,47.38
2019-06-26T09:32:27.583Z,45.61
2019-06-26T09:33:32.490Z,45.98
2019-06-26T09:34:34.703Z,44.81
2019-06-26T09:35:38.213Z,44.68
2019-06-26T09:36:40.492Z,45.57
2019-06-26T09:37:43.187Z,45.77
2019-06-26T09:38:45.994Z,45.46
2019-06-26T09:39:51.507Z,45.57
2019-06-26T09:40:54.000Z,45.52
2019-06-26T09:41:56.888Z,45.89
2019-06-26T09:42:59.903Z,46.56
2019-06-26T09:44:02.793Z,46.84
2019-06-26T09:45:08.956Z,47.21
2019-06-26T09:46:11.170Z,47.12
2019-06-26T09:47:15.771Z,46.87
2019-06-26T09:48:21.233Z,46.74
2019-06-26T09:49:23.826Z,47.08
2019-06-26T09:50:26.359Z,46.58
2019-06-26T09:51:28.775Z,46.54
2019-06-26T09:52:31.558Z,46.47
2019-06-26T09:53:46.719Z,46.61
2019-06-26T09:54:42.866Z,47.01
2019-06-26T09:55:47.786Z,46.04
2019-06-26T09:56:50.632Z,45.90
2019-06-26T09:57:53.150Z,45.96
2019-06-26T09:58:55.614Z,46.68
2019-06-26T09:59:58.542Z,45.95
2019-06-26T10:01:04.430Z,46.17
2019-06-26T10:02:07.288Z,46.01
2019-06-26T10:03:10.450Z,46.70
2019-06-26T10:04:13.129Z,46.67
2019-06-26T10:05:18.356Z,46.33
2019-06-26T10:06:20.457Z,46.47
2019-06-26T10:07:23.242Z,46.34
2019-06-26T10:08:26.143Z,46.74
2019-06-26T10:09:28.864Z,46.79
2019-06-26T10:10:31.938Z,46.78
2019-06-26T10:11:35.007Z,46.56
2019-06-26T10:12:38.969Z,46.25
2019-06-26T10:13:41.560Z,46.49
2019-06-26T10:14:47.815Z,46.79
2019-06-26T10:15:49.529Z,47.18
2019-06-26T10:16:52.602Z,46.73
2019-06-26T10:17:55.268Z,46.25
2019-06-26T10:19:09.706Z,46.68
2019-06-26T10:20:06.064Z,45.70
2019-06-26T10:21:08.683Z,46.16
2019-06-26T10:22:10.676Z,46.11
2019-06-26T10:23:13.334Z,46.00
2019-06-26T10:24:15.029Z,46.27
2019-06-26T10:25:17.809Z,46.31
2019-06-26T10:26:20.836Z,46.37
2019-06-26T10:27:23.455Z,46.69
2019-06-26T10:28:25.694Z,46.35
2019-06-26T10:29:30.214Z,46.91
2019-06-26T10:30:33.818Z,46.69
2019-06-26T10:31:36.747Z,45.68
2019-06-26T10:32:39.437Z,46.20
2019-06-26T10:33:42.218Z,46.31
2019-06-26T10:34:46.319Z,46.32
2019-06-26T10:35:48.911Z,45.67
2019-06-26T10:36:50.838Z,45.12
2019-06-26T10:37:55.421Z,45.56
2019-06-26T10:38:58.034Z,45.39
2019-06-26T10:39:59.992Z,45.30
2019-06-26T10:41:03.285Z,45.11
2019-06-26T10:42:05.974Z,44.72
2019-06-26T10:43:09.191Z,45.34
2019-06-26T10:44:13.581Z,44.97
2019-06-26T10:45:16.832Z,44.81
2019-06-26T10:46:18.683Z,41.62
2019-06-26T10:47:21.552Z,42.41
2019-06-26T10:48:25.273Z,44.08
2019-06-26T10:49:28.080Z,44.66
2019-06-26T10:50:30.909Z,44.82
2019-06-26T10:51:34.369Z,44.62
2019-06-26T10:52:38.751Z,44.25
2019-06-26T10:53:42.863Z,44.26
2019-06-26T10:54:45.368Z,43.97
2019-06-26T10:55:53.835Z,44.52
2019-06-26T10:56:56.871Z,44.42
2019-06-26T10:58:01.015Z,44.42
2019-06-26T10:59:03.951Z,44.76
2019-06-26T11:00:12.053Z,44.50
2019-06-26T11:01:14.965Z,44.37
2019-06-26T11:02:19.311Z,44.08
2019-06-26T11:03:22.366Z,43.50
2019-06-26T11:04:24.574Z,44.02
2019-06-26T11:05:27.481Z,42.93
2019-06-26T11:06:30.301Z,42.89
2019-06-26T11:07:36.320Z,43.50
2019-06-26T11:08:37.800Z,43.66
2019-06-26T11:09:40.922Z,43.76
2019-06-26T11:10:43.704Z,43.87
2019-06-26T11:11:46.177Z,43.61
2019-06-26T11:12:50.266Z,43.29
2019-06-26T11:13:54.614Z,43.46
2019-06-26T11:14:57.301Z,43.40
2019-06-26T11:15:58.987Z,43.31
2019-06-26T11:17:02.862Z,42.60
2019-06-26T11:18:07.411Z,43.09
2019-06-26T11:19:10.165Z,43.21
2019-06-26T11:20:16.014Z,43.03
2019-06-26T11:21:19.505Z,42.96
2019-06-26T11:22:22.105Z,42.91
2019-06-26T11:23:25.121Z,42.30
2019-06-26T11:24:28.610Z,42.16
2019-06-26T11:25:31.693Z,42.25
2019-06-26T11:26:34.501Z,41.97
2019-06-26T11:27:37.745Z,41.85
2019-06-26T11:28:40.631Z,42.07
2019-06-26T11:29:45.061Z,42.02
2019-06-26T11:30:46.896Z,41.20
2019-06-26T11:31:51.382Z,39.22
2019-06-26T11:32:54.938Z,40.57
2019-06-26T11:33:58.636Z,40.90
2019-06-26T11:35:01.217Z,40.93
2019-06-26T11:36:03.861Z,40.69
2019-06-26T11:37:06.010Z,41.06
2019-06-26T11:38:08.467Z,41.38
2019-06-26T11:39:12.868Z,40.63
2019-06-26T11:40:16.144Z,41.38
2019-06-26T11:41:18.758Z,40.89
2019-06-26T11:42:23.227Z,40.14
2019-06-26T11:43:28.078Z,40.88
2019-06-26T11:44:30.643Z,40.92
2019-06-26T11:45:34.917Z,40.83
2019-06-26T11:46:37.089Z,40.68
2019-06-26T11:47:40.046Z,37.36
2019-06-26T11:48:43.104Z,39.11
2019-06-26T11:49:59.046Z,39.17
2019-06-26T11:50:51.235Z,38.41
2019-06-26T11:51:53.961Z,38.00
2019-06-26T11:52:57.049Z,39.43
2019-06-26T11:54:01.158Z,39.43
2019-06-26T11:55:08.791Z,39.97
2019-06-26T11:56:11.465Z,40.29
2019-06-26T11:57:14.094Z,40.34
2019-06-26T11:58:17.979Z,40.71
2019-06-26T11:59:20.912Z,40.56
2019-06-26T12:00:24.162Z,40.79
2019-06-26T12:01:32.068Z,40.96
2019-06-26T12:02:34.804Z,40.93
2019-06-26T12:03:37.966Z,40.53
2019-06-26T12:04:40.707Z,35.08
2019-06-26T12:05:43.659Z,34.15
2019-06-26T12:06:50.433Z,38.15
2019-06-26T12:07:53.374Z,38.80
2019-06-26T12:08:56.183Z,39.36
2019-06-26T12:09:59.518Z,39.70
2019-06-26T12:11:02.479Z,38.83
2019-06-26T12:12:05.328Z,39.00
2019-06-26T12:13:07.106Z,39.49
2019-06-26T12:14:09.713Z,39.09
2019-06-26T12:15:13.384Z,39.18
2019-06-26T12:16:17.385Z,39.26
2019-06-26T12:17:20.238Z,39.09
2019-06-26T12:18:22.932Z,39.46
2019-06-26T12:19:24.959Z,39.72
2019-06-26T12:20:29.046Z,39.64
2019-06-26T12:21:34.920Z,37.82
2019-06-26T12:22:39.808Z,38.66
2019-06-26T12:23:42.744Z,39.04
2019-06-26T12:24:44.908Z,38.20
2019-06-26T12:25:47.626Z,38.64
2019-06-26T12:26:50.717Z,38.20
2019-06-26T12:27:53.061Z,38.40
2019-06-26T12:28:55.806Z,38.72
2019-06-26T12:29:58.568Z,38.83
2019-06-26T12:31:01.029Z,39.17
2019-06-26T12:32:03.648Z,38.40
2019-06-26T12:33:07.207Z,38.47
2019-06-26T12:34:09.707Z,38.56
2019-06-26T12:35:13.013Z,38.69
2019-06-26T12:36:15.671Z,38.96
2019-06-26T12:37:36.350Z,39.33
2019-06-26T12:38:24.235Z,39.18
2019-06-26T12:39:27.063Z,39.27
2019-06-26T12:40:31.889Z,39.31
2019-06-26T12:41:34.769Z,38.33
2019-06-26T12:42:38.475Z,37.60
2019-06-26T12:43:42.151Z,36.05
2019-06-26T12:44:44.779Z,38.39
2019-06-26T12:45:46.678Z,38.76
2019-06-26T12:46:49.609Z,38.81
2019-06-26T12:47:52.523Z,35.63
2019-06-26T12:48:55.481Z,34.31
2019-06-26T12:49:57.458Z,33.22
2019-06-26T12:51:00.085Z,35.42
2019-06-26T12:52:03.211Z,35.30
2019-06-26T12:53:06.020Z,37.05
2019-06-26T12:54:09.177Z,37.47
2019-06-26T12:55:12.087Z,37.01
2019-06-26T12:56:14.574Z,37.84
2019-06-26T12:57:17.552Z,38.41
2019-06-26T12:58:20.313Z,38.54
2019-06-26T12:59:24.756Z,35.96
2019-06-26T13:00:26.999Z,38.44
2019-06-26T13:01:28.931Z,38.55
2019-06-26T13:02:31.462Z,36.32
2019-06-26T13:03:35.673Z,37.00
2019-06-26T13:04:39.247Z,37.72
2019-06-26T13:05:42.011Z,37.58
2019-06-26T13:06:44.963Z,38.05
2019-06-26T13:07:47.461Z,37.99
2019-06-26T13:08:50.119Z,38.45
2019-06-26T13:09:53.167Z,38.36
2019-06-26T13:10:56.741Z,38.70
2019-06-26T13:11:59.373Z,38.22
2019-06-26T13:13:02.247Z,35.95
2019-06-26T13:14:05.120Z,37.63
2019-06-26T13:15:08.754Z,37.86
2019-06-26T13:16:15.088Z,38.00
2019-06-26T13:17:17.845Z,38.26
2019-06-26T13:18:20.772Z,38.26
2019-06-26T13:19:23.696Z,38.23
2019-06-26T13:20:26.301Z,38.09
2019-06-26T13:21:29.710Z,35.42
2019-06-26T13:22:32.580Z,37.62
2019-06-26T13:23:35.319Z,37.48
2019-06-26T13:24:37.196Z,37.25
2019-06-26T13:25:39.690Z,37.38
2019-06-26T13:26:42.955Z,37.42
2019-06-26T13:27:45.817Z,37.03
2019-06-26T13:28:49.184Z,36.90
2019-06-26T13:29:52.839Z,36.90
2019-06-26T13:30:55.462Z,33.12
2019-06-26T13:32:01.472Z,34.59
2019-06-26T13:33:04.255Z,35.72
2019-06-26T13:34:08.558Z,35.93
2019-06-26T13:35:12.582Z,35.98
2019-06-26T13:36:16.762Z,36.26